ROOKIE1 EFJY-EFHK
Flight info
| Callsign | ROOKIE1 |
|---|---|
| Flight time | 0h 29m |
| Altitude | 26000 |
| Route | ATSEN Y86 LUSEP |
| Aircraft | HAWK/M-SDGIRY/C |
Departure
| Time | 2026-05-07 18:05 |
|---|---|
| Airport | Jyväskylä Airport (EFJY) |
Arrival
| Time | 2026-05-07 18:34 |
|---|---|
| Airport | Helsinki Vantaa Airport (EFHK) |
| Time | Latitude | Longitude | Altitude | Speed | Heading |
|---|---|---|---|---|---|
| 2026-05-07 17:51 | 62.40136 | 25.65753 | 463 ft | 0 kts | 232° |
| 2026-05-07 17:59 | 62.40135 | 25.65751 | 462 ft | 2 kts | 229° |
| 2026-05-07 17:59 | 62.40153 | 25.65794 | 461 ft | 14 kts | 335° |
| 2026-05-07 17:59 | 62.40222 | 25.65801 | 461 ft | 10 kts | 36° |
| 2026-05-07 18:00 | 62.40278 | 25.65919 | 461 ft | 15 kts | 44° |
| 2026-05-07 18:00 | 62.40366 | 25.66104 | 471 ft | 18 kts | 43° |
| 2026-05-07 18:00 | 62.40387 | 25.66268 | 473 ft | 11 kts | 127° |
| 2026-05-07 18:00 | 62.40325 | 25.66407 | 473 ft | 14 kts | 134° |
| 2026-05-07 18:01 | 62.40255 | 25.66564 | 473 ft | 16 kts | 134° |
| 2026-05-07 18:01 | 62.40171 | 25.66756 | 476 ft | 21 kts | 133° |
| 2026-05-07 18:01 | 62.40070 | 25.66984 | 475 ft | 20 kts | 133° |
| 2026-05-07 18:01 | 62.39974 | 25.67196 | 472 ft | 19 kts | 134° |
| 2026-05-07 18:02 | 62.39771 | 25.67652 | 467 ft | 25 kts | 134° |
| 2026-05-07 18:02 | 62.39646 | 25.67951 | 462 ft | 29 kts | 130° |
| 2026-05-07 18:02 | 62.39519 | 25.68302 | 457 ft | 28 kts | 117° |
| 2026-05-07 18:03 | 62.39443 | 25.68639 | 465 ft | 21 kts | 114° |
| 2026-05-07 18:03 | 62.39417 | 25.68859 | 465 ft | 13 kts | 55° |
| 2026-05-07 18:03 | 62.39475 | 25.68885 | 465 ft | 0 kts | 314° |
| 2026-05-07 18:04 | 62.39476 | 25.68884 | 465 ft | 2 kts | 314° |
| 2026-05-07 18:04 | 62.39644 | 25.68514 | 465 ft | 83 kts | 313° |
| 2026-05-07 18:04 | 62.40290 | 25.67079 | 695 ft | 172 kts | 314° |
| 2026-05-07 18:05 | 62.41309 | 25.64777 | 1615 ft | 248 kts | 313° |
| 2026-05-07 18:05 | 62.42285 | 25.61844 | 4121 ft | 233 kts | 284° |
| 2026-05-07 18:05 | 62.42118 | 25.58412 | 6605 ft | 246 kts | 244° |
| 2026-05-07 18:05 | 62.40794 | 25.55931 | 8548 ft | 267 kts | 206° |
| 2026-05-07 18:06 | 62.38987 | 25.54604 | 10539 ft | 278 kts | 202° |
| 2026-05-07 18:06 | 62.37055 | 25.53211 | 11949 ft | 307 kts | 199° |
| 2026-05-07 18:06 | 62.34922 | 25.52279 | 13729 ft | 319 kts | 193° |
| 2026-05-07 18:06 | 62.32671 | 25.51763 | 15315 ft | 330 kts | 189° |
| 2026-05-07 18:07 | 62.30344 | 25.51310 | 16928 ft | 341 kts | 190° |
| 2026-05-07 18:07 | 62.27976 | 25.50844 | 18664 ft | 339 kts | 191° |
| 2026-05-07 18:07 | 62.25615 | 25.50385 | 20143 ft | 346 kts | 191° |
| 2026-05-07 18:07 | 62.23189 | 25.49909 | 21382 ft | 354 kts | 192° |
| 2026-05-07 18:08 | 62.20719 | 25.49451 | 22775 ft | 358 kts | 192° |
| 2026-05-07 18:08 | 62.18254 | 25.49036 | 23972 ft | 365 kts | 193° |
| 2026-05-07 18:08 | 62.15666 | 25.48511 | 24696 ft | 381 kts | 193° |
| 2026-05-07 18:08 | 62.12962 | 25.47893 | 25281 ft | 399 kts | 193° |
| 2026-05-07 18:09 | 62.10159 | 25.47195 | 26054 ft | 413 kts | 194° |
| 2026-05-07 18:09 | 62.07199 | 25.46547 | 26202 ft | 442 kts | 192° |
| 2026-05-07 18:09 | 62.04095 | 25.45867 | 26271 ft | 450 kts | 192° |
| 2026-05-07 18:09 | 62.00984 | 25.45203 | 26240 ft | 446 kts | 192° |
| 2026-05-07 18:10 | 61.97939 | 25.44596 | 26165 ft | 434 kts | 192° |
| 2026-05-07 18:10 | 61.94941 | 25.44018 | 26133 ft | 429 kts | 192° |
| 2026-05-07 18:10 | 61.91971 | 25.43435 | 26193 ft | 429 kts | 193° |
| 2026-05-07 18:10 | 61.88989 | 25.42822 | 26222 ft | 431 kts | 193° |
| 2026-05-07 18:11 | 61.85992 | 25.42203 | 26207 ft | 434 kts | 192° |
| 2026-05-07 18:11 | 61.83996 | 25.41822 | 26218 ft | 436 kts | 192° |
| 2026-05-07 18:11 | 61.79989 | 25.41023 | 26230 ft | 437 kts | 193° |
| 2026-05-07 18:11 | 61.76949 | 25.40395 | 26190 ft | 439 kts | 193° |
| 2026-05-07 18:12 | 61.73896 | 25.39803 | 26151 ft | 441 kts | 192° |
| 2026-05-07 18:12 | 61.70846 | 25.39250 | 26306 ft | 438 kts | 192° |
| 2026-05-07 18:12 | 61.67796 | 25.38703 | 26225 ft | 440 kts | 192° |
| 2026-05-07 18:12 | 61.64739 | 25.38174 | 26214 ft | 441 kts | 192° |
| 2026-05-07 18:13 | 61.61670 | 25.37661 | 26194 ft | 442 kts | 192° |
| 2026-05-07 18:13 | 61.59637 | 25.37326 | 26186 ft | 443 kts | 192° |
| 2026-05-07 18:13 | 61.56563 | 25.36809 | 26179 ft | 442 kts | 193° |
| 2026-05-07 18:13 | 61.53497 | 25.36219 | 26175 ft | 442 kts | 193° |
| 2026-05-07 18:14 | 61.50427 | 25.35600 | 26164 ft | 442 kts | 193° |
| 2026-05-07 18:14 | 61.47364 | 25.34979 | 26158 ft | 442 kts | 193° |
| 2026-05-07 18:14 | 61.44307 | 25.34360 | 26116 ft | 440 kts | 193° |
| 2026-05-07 18:14 | 61.41305 | 25.33761 | 25953 ft | 438 kts | 193° |
| 2026-05-07 18:15 | 61.38284 | 25.33180 | 25593 ft | 435 kts | 193° |
| 2026-05-07 18:15 | 61.35288 | 25.32640 | 24744 ft | 427 kts | 193° |
| 2026-05-07 18:15 | 61.32364 | 25.32153 | 23966 ft | 415 kts | 193° |
| 2026-05-07 18:15 | 61.29517 | 25.31673 | 23002 ft | 405 kts | 193° |
| 2026-05-07 18:16 | 61.26724 | 25.31185 | 21855 ft | 400 kts | 193° |
| 2026-05-07 18:16 | 61.23954 | 25.30766 | 20789 ft | 396 kts | 192° |
| 2026-05-07 18:16 | 61.21225 | 25.30335 | 19748 ft | 391 kts | 192° |
| 2026-05-07 18:16 | 61.18521 | 25.29878 | 18662 ft | 389 kts | 192° |
| 2026-05-07 18:17 | 61.15828 | 25.29380 | 17484 ft | 386 kts | 192° |
| 2026-05-07 18:17 | 61.13170 | 25.28843 | 16401 ft | 381 kts | 192° |
| 2026-05-07 18:17 | 61.10551 | 25.28338 | 15480 ft | 375 kts | 190° |
| 2026-05-07 18:17 | 61.07973 | 25.28001 | 14872 ft | 367 kts | 189° |
| 2026-05-07 18:18 | 61.05459 | 25.27693 | 14346 ft | 366 kts | 189° |
| 2026-05-07 18:18 | 61.02915 | 25.27402 | 13892 ft | 367 kts | 188° |
| 2026-05-07 18:18 | 61.00360 | 25.27148 | 13610 ft | 368 kts | 187° |
| 2026-05-07 18:18 | 60.97816 | 25.26940 | 13513 ft | 363 kts | 187° |
| 2026-05-07 18:19 | 60.95299 | 25.27003 | 13416 ft | 363 kts | 180° |
| 2026-05-07 18:19 | 60.92781 | 25.27498 | 13128 ft | 364 kts | 179° |
| 2026-05-07 18:19 | 60.90253 | 25.28049 | 12860 ft | 365 kts | 178° |
| 2026-05-07 18:19 | 60.87729 | 25.28657 | 12519 ft | 367 kts | 177° |
| 2026-05-07 18:20 | 60.85171 | 25.29229 | 12035 ft | 371 kts | 178° |
| 2026-05-07 18:20 | 60.82594 | 25.29801 | 11600 ft | 374 kts | 174° |
| 2026-05-07 18:20 | 60.80027 | 25.30551 | 11063 ft | 369 kts | 174° |
| 2026-05-07 18:20 | 60.77508 | 25.31288 | 10692 ft | 359 kts | 174° |
| 2026-05-07 18:21 | 60.75072 | 25.32035 | 10362 ft | 350 kts | 173° |
| 2026-05-07 18:21 | 60.72670 | 25.32794 | 9847 ft | 349 kts | 172° |
| 2026-05-07 18:21 | 60.70268 | 25.33563 | 9207 ft | 350 kts | 172° |
| 2026-05-07 18:21 | 60.67842 | 25.34223 | 8505 ft | 353 kts | 175° |
| 2026-05-07 18:22 | 60.65394 | 25.34729 | 7937 ft | 352 kts | 173° |
| 2026-05-07 18:22 | 60.63853 | 25.35642 | 7749 ft | 346 kts | 155° |
| 2026-05-07 18:22 | 60.61131 | 25.38911 | 7439 ft | 336 kts | 148° |
| 2026-05-07 18:22 | 60.59156 | 25.41372 | 7280 ft | 330 kts | 148° |
| 2026-05-07 18:23 | 60.57159 | 25.43698 | 7339 ft | 334 kts | 151° |
| 2026-05-07 18:23 | 60.55124 | 25.45953 | 7278 ft | 340 kts | 151° |
| 2026-05-07 18:23 | 60.53044 | 25.48270 | 7262 ft | 341 kts | 151° |
| 2026-05-07 18:23 | 60.50965 | 25.50584 | 7264 ft | 340 kts | 151° |
| 2026-05-07 18:24 | 60.48889 | 25.52886 | 7253 ft | 340 kts | 151° |
| 2026-05-07 18:24 | 60.46808 | 25.55192 | 7230 ft | 341 kts | 151° |
| 2026-05-07 18:24 | 60.44730 | 25.57491 | 7243 ft | 340 kts | 151° |
| 2026-05-07 18:24 | 60.42474 | 25.58666 | 7101 ft | 341 kts | 181° |
| 2026-05-07 18:25 | 60.40281 | 25.57018 | 6701 ft | 344 kts | 223° |
| 2026-05-07 18:25 | 60.39015 | 25.52985 | 6475 ft | 342 kts | 246° |
| 2026-05-07 18:25 | 60.37984 | 25.48646 | 6191 ft | 339 kts | 246° |
| 2026-05-07 18:25 | 60.36952 | 25.44408 | 5785 ft | 333 kts | 245° |
| 2026-05-07 18:26 | 60.35924 | 25.40266 | 5465 ft | 326 kts | 245° |
| 2026-05-07 18:26 | 60.34910 | 25.36213 | 5176 ft | 319 kts | 245° |
| 2026-05-07 18:26 | 60.33999 | 25.32480 | 5159 ft | 274 kts | 246° |
| 2026-05-07 18:26 | 60.33199 | 25.29139 | 5062 ft | 261 kts | 247° |
| 2026-05-07 18:27 | 60.32429 | 25.25860 | 5019 ft | 256 kts | 253° |
| 2026-05-07 18:27 | 60.32258 | 25.22422 | 5112 ft | 241 kts | 279° |
| 2026-05-07 18:27 | 60.32808 | 25.19255 | 5170 ft | 242 kts | 304° |
| 2026-05-07 18:27 | 60.34067 | 25.16880 | 5163 ft | 259 kts | 329° |
| 2026-05-07 18:28 | 60.35691 | 25.15083 | 5157 ft | 258 kts | 334° |
| 2026-05-07 18:28 | 60.37302 | 25.13574 | 5142 ft | 252 kts | 335° |
| 2026-05-07 18:28 | 60.38868 | 25.12124 | 4979 ft | 250 kts | 335° |
| 2026-05-07 18:28 | 60.40468 | 25.10605 | 4556 ft | 254 kts | 334° |
| 2026-05-07 18:29 | 60.42031 | 25.09055 | 4189 ft | 250 kts | 333° |
| 2026-05-07 18:29 | 60.43559 | 25.07480 | 3818 ft | 245 kts | 332° |
| 2026-05-07 18:29 | 60.45046 | 25.05920 | 3632 ft | 235 kts | 330° |
| 2026-05-07 18:29 | 60.46442 | 25.04252 | 3391 ft | 232 kts | 321° |
| 2026-05-07 18:30 | 60.47153 | 25.01431 | 3159 ft | 231 kts | 276° |
| 2026-05-07 18:30 | 60.46894 | 24.98227 | 2892 ft | 233 kts | 253° |
| 2026-05-07 18:30 | 60.46204 | 24.95360 | 2811 ft | 221 kts | 243° |
| 2026-05-07 18:30 | 60.45465 | 24.92714 | 2652 ft | 210 kts | 243° |
| 2026-05-07 18:31 | 60.44720 | 24.90181 | 2322 ft | 208 kts | 240° |
| 2026-05-07 18:31 | 60.43875 | 24.87924 | 2251 ft | 193 kts | 227° |
| 2026-05-07 18:31 | 60.42750 | 24.86654 | 1977 ft | 186 kts | 186° |
| 2026-05-07 18:31 | 60.41592 | 24.87568 | 1714 ft | 177 kts | 147° |
| 2026-05-07 18:32 | 60.40549 | 24.88839 | 1627 ft | 171 kts | 155° |
| 2026-05-07 18:32 | 60.39565 | 24.89814 | 1495 ft | 150 kts | 155° |
| 2026-05-07 18:32 | 60.38615 | 24.90779 | 1335 ft | 156 kts | 155° |
| 2026-05-07 18:32 | 60.37665 | 24.91750 | 1216 ft | 150 kts | 155° |
| 2026-05-07 18:33 | 60.36720 | 24.92703 | 1078 ft | 154 kts | 155° |
| 2026-05-07 18:33 | 60.35756 | 24.93715 | 864 ft | 152 kts | 155° |
| 2026-05-07 18:33 | 60.34887 | 24.94609 | 641 ft | 136 kts | 156° |
| 2026-05-07 18:33 | 60.34026 | 24.95446 | 438 ft | 136 kts | 155° |
| 2026-05-07 18:34 | 60.33205 | 24.96284 | 253 ft | 132 kts | 154° |
| 2026-05-07 18:34 | 60.32421 | 24.97071 | 156 ft | 108 kts | 153° |
| 2026-05-07 18:34 | 60.31940 | 24.97557 | 149 ft | 52 kts | 154° |
| 2026-05-07 18:34 | 60.31748 | 24.97741 | 149 ft | 16 kts | 186° |
| 2026-05-07 18:35 | 60.31678 | 24.97652 | 155 ft | 7 kts | 234° |
| 2026-05-07 18:35 | 60.31664 | 24.97595 | 156 ft | 4 kts | 246° |
| 2026-05-07 18:35 | 60.31659 | 24.97570 | 157 ft | 0 kts | 246° |
| 2026-05-07 18:36 | 60.31665 | 24.97526 | 157 ft | 11 kts | 307° |
| 2026-05-07 18:36 | 60.31741 | 24.97432 | 157 ft | 12 kts | 332° |
| 2026-05-07 18:36 | 60.31811 | 24.97358 | 157 ft | 10 kts | 332° |
| 2026-05-07 18:36 | 60.31883 | 24.97285 | 157 ft | 16 kts | 332° |
| 2026-05-07 18:37 | 60.32016 | 24.97147 | 157 ft | 24 kts | 333° |
| 2026-05-07 18:37 | 60.32154 | 24.97005 | 157 ft | 21 kts | 333° |
| 2026-05-07 18:37 | 60.32276 | 24.96888 | 157 ft | 18 kts | 330° |
| 2026-05-07 18:37 | 60.32264 | 24.96701 | 158 ft | 15 kts | 227° |
| 2026-05-07 18:38 | 60.32200 | 24.96563 | 158 ft | 12 kts | 226° |
| 2026-05-07 18:38 | 60.32147 | 24.96448 | 158 ft | 10 kts | 229° |
| 2026-05-07 18:38 | 60.32066 | 24.96265 | 158 ft | 27 kts | 227° |
| 2026-05-07 18:38 | 60.31902 | 24.95907 | 158 ft | 42 kts | 227° |
| 2026-05-07 18:39 | 60.31741 | 24.95550 | 158 ft | 27 kts | 228° |
| 2026-05-07 18:39 | 60.31626 | 24.95291 | 158 ft | 23 kts | 227° |
| 2026-05-07 18:39 | 60.31523 | 24.95066 | 158 ft | 20 kts | 226° |
| 2026-05-07 18:39 | 60.31433 | 24.94870 | 158 ft | 18 kts | 229° |
| 2026-05-07 18:40 | 60.31355 | 24.94700 | 158 ft | 15 kts | 225° |
| 2026-05-07 18:40 | 60.31290 | 24.94556 | 158 ft | 13 kts | 231° |
| 2026-05-07 18:40 | 60.31194 | 24.94342 | 158 ft | 23 kts | 227° |
| 2026-05-07 18:40 | 60.31097 | 24.94128 | 158 ft | 19 kts | 227° |
| 2026-05-07 18:41 | 60.31014 | 24.93941 | 158 ft | 17 kts | 226° |
| 2026-05-07 18:41 | 60.30985 | 24.93753 | 158 ft | 14 kts | 294° |
| 2026-05-07 18:41 | 60.31045 | 24.93627 | 158 ft | 11 kts | 317° |
| 2026-05-07 18:41 | 60.31115 | 24.93496 | 158 ft | 17 kts | 317° |
| 2026-05-07 18:42 | 60.31213 | 24.93306 | 157 ft | 21 kts | 316° |
| 2026-05-07 18:42 | 60.31313 | 24.93126 | 157 ft | 18 kts | 318° |
| 2026-05-07 18:42 | 60.31411 | 24.93065 | 157 ft | 15 kts | 34° |
| 2026-05-07 18:42 | 60.31483 | 24.93183 | 157 ft | 12 kts | 359° |
| 2026-05-07 18:43 | 60.31512 | 24.93171 | 157 ft | 0 kts | 325° |